createdAt,value
2017-09-09T00:00:07.339Z,95421.38
2017-09-09T00:19:18.142Z,95394.47
2017-09-09T00:22:07.218Z,95376.78
2017-09-09T00:25:12.427Z,95385.15
2017-09-09T00:44:28.178Z,95350.16
2017-09-09T00:47:24.951Z,95341.92
2017-09-09T00:50:22.403Z,95341.61
2017-09-09T00:53:19.875Z,95337.10
2017-09-09T01:03:09.519Z,95324.06
2017-09-09T01:05:58.394Z,95320.46
2017-09-09T01:25:09.174Z,95294.69
2017-09-09T01:27:58.363Z,95285.88
2017-09-09T01:30:55.372Z,95285.94
2017-09-09T01:33:52.229Z,95284.89
2017-09-09T01:36:48.987Z,95282.16
2017-09-09T01:39:45.907Z,95282.16
2017-09-09T01:48:53.470Z,95256.84
2017-09-09T01:51:43.106Z,95245.73
2017-09-09T02:10:54.752Z,95237.63
2017-09-09T02:13:43.971Z,95233.02
2017-09-09T02:32:56.078Z,95204.17
2017-09-09T02:52:30.614Z,95177.07
2017-09-09T02:54:56.419Z,95181.75
2017-09-09T02:57:45.331Z,95175.52
2017-09-09T03:16:56.399Z,95150.63
2017-09-09T03:19:45.195Z,95149.33
2017-09-09T03:22:42.316Z,95149.88
2017-09-09T03:25:39.927Z,95141.62
2017-09-09T03:28:37.020Z,95138.08
2017-09-09T03:31:34.575Z,95136.82
2017-09-09T03:34:31.606Z,95133.91
2017-09-09T03:40:17.943Z,95139.20
2017-09-09T03:43:07.526Z,95132.47
2017-09-09T04:02:18.271Z,95116.01
2017-09-09T04:05:07.656Z,95113.88
2017-09-09T04:08:04.679Z,95110.55
2017-09-09T04:11:02.560Z,95104.36
2017-09-09T04:13:59.686Z,95102.59
2017-09-09T04:16:56.771Z,95106.58
2017-09-09T04:19:54.182Z,95098.59
2017-09-09T04:25:40.619Z,95089.98
2017-09-09T04:45:16.458Z,95084.05
2017-09-09T04:47:42.267Z,95084.08
2017-09-09T04:50:31.002Z,95078.50
2017-09-09T04:53:28.414Z,95078.48
2017-09-09T05:12:37.740Z,95056.25
2017-09-09T05:15:34.579Z,95049.24
2017-09-09T05:34:44.075Z,95048.66
2017-09-09T05:57:08.829Z,95060.98
2017-09-09T06:16:20.171Z,95077.46
2017-09-09T06:35:55.656Z,95098.50
2017-09-09T06:38:21.406Z,95094.50
2017-09-09T06:41:10.939Z,95107.91
2017-09-09T06:44:08.060Z,95111.68
2017-09-09T06:59:58.803Z,95108.37
2017-09-09T07:02:48.216Z,95107.78
2017-09-09T07:21:59.038Z,95113.36
2017-09-09T07:41:33.861Z,95147.23
2017-09-09T07:43:59.647Z,95156.45
2017-09-09T07:46:49.289Z,95151.23
2017-09-09T08:06:00.123Z,95169.19
2017-09-09T08:08:49.367Z,95170.55
2017-09-09T08:28:00.251Z,95197.56
2017-09-09T08:47:34.567Z,95193.32
2017-09-09T08:50:00.379Z,95194.87
2017-09-09T08:52:50.099Z,95195.19
2017-09-09T08:55:47.590Z,95198.27
2017-09-09T09:11:38.480Z,95209.20
2017-09-09T09:14:28.451Z,95217.90
2017-09-09T09:17:25.235Z,95220.11
2017-09-09T09:20:22.483Z,95224.31
2017-09-09T09:33:07.997Z,95233.62
2017-09-09T09:35:57.635Z,95233.50
2017-09-09T09:38:55.002Z,95237.86
2017-09-09T09:41:52.196Z,95240.41
2017-09-09T09:44:49.931Z,95247.36
2017-09-09T09:54:38.903Z,95235.44
2017-09-09T09:57:27.871Z,95237.16
2017-09-09T10:19:33.968Z,95221.67
2017-09-09T10:38:44.801Z,95242.69
2017-09-09T10:41:33.659Z,95239.39
2017-09-09T10:44:30.750Z,95237.83
2017-09-09T10:47:28.050Z,95236.04
2017-09-09T10:50:25.378Z,95238.99
2017-09-09T10:53:23.019Z,95243.45
2017-09-09T11:02:30.419Z,95230.78
2017-09-09T11:05:19.483Z,95219.36
2017-09-09T11:08:16.599Z,95219.00
2017-09-09T11:11:13.507Z,95210.06
2017-09-09T11:14:11.338Z,95212.50
2017-09-09T11:17:08.343Z,95198.79
2017-09-09T11:26:16.647Z,95185.58
2017-09-09T11:29:06.212Z,95190.23
2017-09-09T11:32:03.017Z,95199.00
2017-09-09T11:47:53.830Z,95221.39
2017-09-09T11:50:43.207Z,95222.27
2017-09-09T11:53:40.541Z,95222.19
2017-09-09T11:56:37.603Z,95205.70
2017-09-09T11:59:34.538Z,95188.50
2017-09-09T12:02:31.927Z,95190.62
2017-09-09T12:05:29.702Z,95191.67
2017-09-09T12:08:26.843Z,95203.84
2017-09-09T12:27:33.575Z,95225.05
2017-09-09T12:33:19.892Z,95219.95
2017-09-09T12:36:09.238Z,95230.91
2017-09-09T12:39:06.283Z,95225.22
2017-09-09T12:54:55.539Z,95225.91
2017-09-09T12:57:44.979Z,95220.47
2017-09-09T13:00:42.321Z,95207.89
2017-09-09T13:16:32.894Z,95214.56
2017-09-09T13:36:06.467Z,95202.91
2017-09-09T13:38:32.255Z,95208.56
2017-09-09T13:41:22.019Z,95214.88
2017-09-09T13:44:19.099Z,95219.36
2017-09-09T13:47:15.931Z,95227.69
2017-09-09T13:50:13.457Z,95225.16
2017-09-09T13:53:10.311Z,95233.61
2017-09-09T14:15:34.685Z,95224.28
2017-09-09T14:18:31.554Z,95228.37
2017-09-09T14:37:41.010Z,95242.34
2017-09-09T14:40:37.825Z,95244.83
2017-09-09T14:43:34.872Z,95254.32
2017-09-09T14:46:13.798Z,95254.73
2017-09-09T14:49:03.493Z,95251.20
2017-09-09T14:52:01.144Z,95246.11
2017-09-09T15:07:51.387Z,95220.58
2017-09-09T15:10:40.888Z,95218.27
2017-09-09T15:13:38.007Z,95215.52
2017-09-09T15:16:35.394Z,95206.37
2017-09-09T15:29:31.787Z,95209.17
2017-09-09T15:32:21.519Z,95221.67
2017-09-09T15:35:18.715Z,95228.97
2017-09-09T15:51:08.381Z,95241.08
2017-09-09T15:53:57.788Z,95235.59
2017-09-09T15:56:54.662Z,95235.83
2017-09-09T16:12:45.182Z,95246.46
2017-09-09T16:15:34.750Z,95246.89
2017-09-09T16:18:32.400Z,95256.70
2017-09-09T16:21:29.438Z,95254.48
2017-09-09T16:34:16.287Z,95260.23
2017-09-09T16:37:05.098Z,95256.00
2017-09-09T16:40:02.331Z,95254.39
2017-09-09T16:42:59.999Z,95251.39
2017-09-09T16:45:57.083Z,95249.33
2017-09-09T16:55:46.858Z,95263.38
2017-09-09T16:58:36.652Z,95269.64
2017-09-09T17:01:33.474Z,95281.34
2017-09-09T17:04:30.507Z,95291.94
2017-09-09T17:07:27.625Z,95289.73
2017-09-09T17:10:24.703Z,95278.95
2017-09-09T17:13:21.685Z,95275.43
2017-09-09T17:16:18.694Z,95279.04
2017-09-09T17:18:44.445Z,95272.28
2017-09-09T17:38:20.226Z,95292.15
2017-09-09T17:40:46.003Z,95291.99
2017-09-09T17:43:35.036Z,95291.37
2017-09-09T18:02:46.616Z,95286.70
2017-09-09T18:05:35.591Z,95288.11
2017-09-09T18:08:33.404Z,95289.75
2017-09-09T18:24:23.719Z,95316.98
2017-09-09T18:27:13.203Z,95323.44
2017-09-09T18:46:24.677Z,95336.70
2017-09-09T18:49:13.646Z,95341.38
2017-09-09T19:08:25.330Z,95354.69
2017-09-09T19:11:14.358Z,95359.57
2017-09-09T19:30:24.599Z,95378.61
2017-09-09T19:33:13.896Z,95387.41
2017-09-09T19:36:10.902Z,95398.53
2017-09-09T19:39:07.755Z,95409.81
2017-09-09T19:52:04.129Z,95369.01
2017-09-09T19:54:53.291Z,95368.72
2017-09-09T19:57:50.287Z,95350.64
2017-09-09T20:00:47.944Z,95368.50
2017-09-09T20:03:44.940Z,95379.11
2017-09-09T20:13:34.221Z,95390.23
2017-09-09T20:16:23.119Z,95397.64
2017-09-09T20:19:20.262Z,95400.66
2017-09-09T20:35:10.173Z,95403.84
2017-09-09T20:37:58.992Z,95396.34
2017-09-09T20:57:09.062Z,95368.05
2017-09-09T21:16:44.872Z,95403.20
2017-09-09T21:19:10.651Z,95402.36
2017-09-09T21:38:46.016Z,95395.78
2017-09-09T21:41:11.822Z,95391.42
2017-09-09T22:00:46.199Z,95389.73
2017-09-09T22:03:11.962Z,95399.89
2017-09-09T22:06:01.332Z,95395.49
2017-09-09T22:25:12.594Z,95388.61
2017-09-09T22:28:01.859Z,95390.47
2017-09-09T22:30:58.851Z,95394.19
2017-09-09T22:33:56.016Z,95399.22
2017-09-09T22:36:53.291Z,95405.77
2017-09-09T22:46:43.995Z,95412.66
2017-09-09T22:49:33.709Z,95411.41
2017-09-09T22:52:31.416Z,95414.04
2017-09-09T22:55:28.789Z,95414.16
2017-09-09T22:58:26.316Z,95410.09
2017-09-09T23:08:15.329Z,95416.01
2017-09-09T23:11:05.130Z,95408.33
2017-09-09T23:14:03.071Z,95406.55
2017-09-09T23:17:00.755Z,95396.65
2017-09-09T23:19:58.175Z,95400.11
2017-09-09T23:22:55.427Z,95401.88
2017-09-09T23:25:53.060Z,95397.02
2017-09-09T23:28:49.810Z,95396.06
2017-09-09T23:47:59.212Z,95397.50
2017-09-09T23:50:56.675Z,95397.41
